SCRIPT_RESULTS Banner
TAF for LFQQ

by Dr. Günther Eichhorn

TAF for LFQQ provided by aerobaticsweb.org
Current time: Wednesday, 5 Oct, 2022, 06:15 UTC
(This may take a minute, please be patient)


The most recent TAF forecast from LFQQ in our system was generated at
2022/10/05 06:46
The forecast is:
LFQQ 2022/10/05 06:46
TAF LFQQ 050500Z 0506/0612 20012KT 9999 BKN025 PROB30 0507/0509 BKN012
BECMG 0509/0511 23015G25KT
TEMPO 0518/0520 4000 RA BKN009 BKN015
FM052000 27012KT 9999 SCT025
BECMG 0600/0602 20006KT
BECMG 0608/0610 26010KT



access provided by Dr. Guenther Eichhorn at aerobaticsweb.org